createdAt,value
2023-04-01T00:00:53.889Z,86.60
2023-04-01T00:03:22.551Z,86.70
2023-04-01T00:05:53.219Z,86.70
2023-04-01T00:08:22.060Z,86.80
2023-04-01T00:10:55.300Z,86.80
2023-04-01T00:13:22.932Z,86.60
2023-04-01T00:15:50.049Z,86.80
2023-04-01T00:18:17.074Z,86.50
2023-04-01T00:20:51.008Z,86.60
2023-04-01T00:23:18.998Z,86.80
2023-04-01T00:25:49.506Z,86.90
2023-04-01T00:28:18.595Z,86.70
2023-04-01T00:30:47.636Z,86.90
2023-04-01T00:33:15.228Z,86.90
2023-04-01T00:35:47.352Z,86.80
2023-04-01T00:38:14.110Z,86.80
2023-04-01T00:40:46.913Z,86.80
2023-04-01T00:43:19.389Z,86.70
2023-04-01T00:45:48.130Z,86.80
2023-04-01T00:48:21.800Z,86.60
2023-04-01T00:51:17.134Z,86.80
2023-04-01T00:53:51.940Z,86.70
2023-04-01T00:56:23.508Z,86.80
2023-04-01T00:58:57.702Z,86.50
2023-04-01T01:01:26.430Z,86.50
2023-04-01T01:03:53.474Z,86.50
2023-04-01T01:06:32.759Z,86.60
2023-04-01T01:09:11.567Z,86.70
2023-04-01T01:11:44.188Z,86.70
2023-04-01T01:14:17.809Z,86.60
2023-04-01T01:16:57.581Z,87.00
2023-04-01T01:19:33.154Z,86.90
2023-04-01T01:22:18.523Z,86.80
2023-04-01T01:25:04.929Z,86.80
2023-04-01T01:27:33.989Z,86.70
2023-04-01T01:30:11.160Z,86.90
2023-04-01T01:32:56.513Z,86.80
2023-04-01T01:35:25.405Z,86.80
2023-04-01T01:37:56.515Z,86.90
2023-04-01T01:40:24.874Z,86.70
2023-04-01T01:42:55.766Z,86.80
2023-04-01T01:45:26.465Z,86.70
2023-04-01T01:47:54.807Z,86.90
2023-04-01T01:50:23.535Z,87.00
2023-04-01T01:52:52.817Z,86.90
2023-04-01T01:55:33.155Z,86.90
2023-04-01T01:58:06.969Z,86.90
2023-04-01T02:00:35.515Z,86.90
2023-04-01T02:03:02.935Z,87.00
2023-04-01T02:05:31.912Z,86.90
2023-04-01T02:08:08.622Z,86.90
2023-04-01T02:10:40.977Z,87.00
2023-04-01T02:13:19.718Z,86.90
2023-04-01T02:15:49.698Z,86.90
2023-04-01T02:18:17.459Z,86.90
2023-04-01T02:20:45.827Z,86.90
2023-04-01T02:23:13.404Z,87.00
2023-04-01T02:25:42.385Z,86.90
2023-04-01T02:28:11.641Z,86.90
2023-04-01T02:30:41.106Z,86.90
2023-04-01T02:33:08.214Z,86.80
2023-04-01T02:35:38.100Z,86.90
2023-04-01T02:38:06.422Z,86.90
2023-04-01T02:40:52.707Z,86.80
2023-04-01T02:43:23.078Z,86.90
2023-04-01T02:45:55.844Z,86.90
2023-04-01T02:48:23.012Z,86.80
2023-04-01T02:50:49.751Z,86.90
2023-04-01T02:53:18.235Z,86.90
2023-04-01T02:55:46.990Z,86.80
2023-04-01T02:58:13.678Z,87.00
2023-04-01T03:00:40.602Z,86.80
2023-04-01T03:03:07.805Z,86.90
2023-04-01T03:05:34.987Z,86.90
2023-04-01T03:08:02.652Z,86.80
2023-04-01T03:10:29.639Z,86.90
2023-04-01T03:12:56.342Z,86.80
2023-04-01T03:15:25.289Z,86.90
2023-04-01T03:17:52.561Z,86.90
2023-04-01T03:20:19.436Z,86.80
2023-04-01T03:22:46.943Z,86.90
2023-04-01T03:25:14.038Z,86.90
2023-04-01T03:27:40.819Z,86.80
2023-04-01T03:30:15.559Z,86.80
2023-04-01T03:32:42.989Z,86.90
2023-04-01T03:35:11.677Z,86.90
2023-04-01T03:37:38.752Z,86.80
2023-04-01T03:40:06.152Z,86.80
2023-04-01T03:42:33.423Z,86.90
2023-04-01T03:45:09.885Z,86.80
2023-04-01T03:47:37.017Z,86.90
2023-04-01T03:50:09.624Z,86.80
2023-04-01T03:52:40.477Z,86.90
2023-04-01T03:55:11.352Z,86.90
2023-04-01T03:57:47.689Z,86.70
2023-04-01T04:00:19.145Z,86.90
2023-04-01T04:02:48.780Z,86.90
2023-04-01T04:05:19.255Z,86.90
2023-04-01T04:07:47.699Z,86.90
2023-04-01T04:10:31.802Z,86.90
2023-04-01T04:12:59.553Z,86.90
2023-04-01T04:15:26.953Z,86.80
2023-04-01T04:17:53.757Z,86.80
2023-04-01T04:20:26.139Z,86.90
2023-04-01T04:22:52.858Z,86.90
2023-04-01T04:25:19.590Z,86.90
2023-04-01T04:27:46.385Z,86.90
2023-04-01T04:30:13.483Z,86.80
2023-04-01T04:32:40.348Z,86.80
2023-04-01T04:35:11.594Z,86.90
2023-04-01T04:37:40.938Z,86.90
2023-04-01T04:40:10.678Z,86.70
2023-04-01T04:42:40.211Z,86.90
2023-04-01T04:45:07.369Z,86.90
2023-04-01T04:47:36.655Z,86.90
2023-04-01T04:50:03.581Z,86.70
2023-04-01T04:52:30.325Z,86.80
2023-04-01T04:54:59.933Z,86.80
2023-04-01T04:57:29.772Z,86.80
2023-04-01T05:00:06.043Z,86.80
2023-04-01T05:02:32.813Z,86.90
2023-04-01T05:04:59.733Z,86.70
2023-04-01T05:07:26.467Z,86.80
2023-04-01T05:10:01.958Z,86.80
2023-04-01T05:12:28.717Z,86.90
2023-04-01T05:14:55.739Z,86.80
2023-04-01T05:17:22.533Z,86.90
2023-04-01T05:19:51.122Z,86.80
2023-04-01T05:22:18.262Z,86.60
2023-04-01T05:27:35.439Z,86.80
2023-04-01T05:30:02.806Z,87.00
2023-04-01T05:32:29.509Z,86.90
2023-04-01T05:34:56.378Z,87.00
2023-04-01T05:37:26.890Z,87.90
2023-04-01T05:39:56.922Z,88.20
2023-04-01T05:42:23.687Z,88.50
2023-04-01T05:44:50.533Z,88.40
2023-04-01T05:47:17.242Z,88.40
2023-04-01T05:49:46.681Z,88.30
2023-04-01T05:52:16.932Z,88.30
2023-04-01T05:54:43.809Z,88.40
2023-04-01T05:57:10.778Z,88.40
2023-04-01T05:59:37.671Z,88.40
2023-04-01T06:02:04.517Z,88.30
2023-04-01T06:04:38.544Z,88.40
2023-04-01T06:07:17.471Z,88.20
2023-04-01T06:09:45.582Z,88.20
2023-04-01T06:12:41.816Z,88.50
2023-04-01T06:15:09.269Z,88.70
2023-04-01T06:18:04.500Z,88.30
2023-04-01T06:20:50.082Z,88.50
2023-04-01T06:23:26.758Z,88.40
2023-04-01T06:26:15.589Z,88.30
2023-04-01T06:29:06.588Z,88.30
2023-04-01T06:32:00.043Z,88.20
2023-04-01T06:34:44.976Z,88.20
2023-04-01T06:37:24.391Z,88.10
2023-04-01T06:40:28.577Z,87.90
2023-04-01T06:43:39.698Z,87.90
2023-04-01T06:46:26.731Z,88.00
2023-04-01T06:49:15.970Z,87.90
2023-04-01T06:51:58.056Z,87.40
2023-04-01T06:54:35.536Z,88.00
2023-04-01T06:57:17.706Z,88.50
2023-04-01T06:59:45.005Z,88.50
2023-04-01T07:02:11.848Z,88.30
2023-04-01T07:04:49.489Z,88.30
2023-04-01T07:07:21.748Z,88.30
2023-04-01T07:09:54.671Z,88.60
2023-04-01T07:12:34.938Z,88.40
2023-04-01T07:15:31.721Z,88.40
2023-04-01T07:18:06.729Z,88.40
2023-04-01T07:20:37.502Z,88.40
2023-04-01T07:23:13.635Z,88.20
2023-04-01T07:25:52.721Z,88.40
2023-04-01T07:28:19.651Z,88.20
2023-04-01T07:31:03.128Z,88.40
2023-04-01T07:33:54.126Z,88.10
2023-04-01T07:36:35.098Z,88.10
2023-04-01T07:39:40.055Z,88.10
2023-04-01T07:42:15.685Z,88.20
2023-04-01T07:45:05.996Z,88.20
2023-04-01T07:47:46.050Z,88.20
2023-04-01T07:50:51.943Z,88.30
2023-04-01T07:53:22.976Z,88.20
2023-04-01T07:56:09.802Z,88.40
2023-04-01T07:58:46.090Z,88.30
2023-04-01T08:01:42.171Z,88.20
2023-04-01T08:04:34.275Z,88.30
2023-04-01T08:07:12.986Z,88.20
2023-04-01T08:09:48.587Z,88.30
2023-04-01T08:12:23.075Z,88.20
2023-04-01T08:15:03.913Z,88.20
2023-04-01T08:17:41.652Z,87.90
2023-04-01T08:20:11.307Z,88.20
2023-04-01T08:22:43.886Z,88.20
2023-04-01T08:25:35.852Z,88.10
2023-04-01T08:28:35.031Z,88.10
2023-04-01T08:31:38.959Z,88.10
2023-04-01T08:34:16.369Z,88.10
2023-04-01T08:36:56.380Z,88.30
2023-04-01T08:39:40.490Z,88.50
2023-04-01T08:42:42.553Z,88.40
2023-04-01T08:45:15.376Z,88.40
2023-04-01T08:48:11.527Z,88.10
2023-04-01T08:51:06.846Z,88.10
2023-04-01T08:53:53.802Z,88.90
2023-04-01T08:56:35.518Z,88.80
2023-04-01T08:59:11.130Z,88.40
2023-04-01T09:01:40.950Z,88.30
2023-04-01T09:04:19.458Z,89.00
2023-04-01T09:07:07.326Z,89.10
2023-04-01T09:09:52.789Z,89.30
2023-04-01T09:12:29.509Z,89.40
2023-04-01T09:15:17.257Z,89.10
2023-04-01T09:18:02.989Z,89.60
2023-04-01T09:21:04.993Z,89.10
2023-04-01T09:23:31.637Z,89.40
2023-04-01T09:26:37.221Z,89.40
2023-04-01T09:29:36.336Z,89.60
2023-04-01T09:32:40.576Z,89.50
2023-04-01T09:35:37.828Z,89.40
2023-04-01T09:38:16.413Z,89.50
2023-04-01T09:41:04.685Z,89.40
2023-04-01T09:44:09.317Z,89.40
2023-04-01T09:46:51.392Z,89.20
2023-04-01T09:49:49.978Z,89.10
2023-04-01T09:52:54.076Z,88.90
2023-04-01T09:55:54.848Z,88.60
2023-04-01T09:58:27.368Z,88.50
2023-04-01T10:01:19.042Z,88.40
2023-04-01T10:04:04.618Z,88.70
2023-04-01T10:07:23.138Z,88.40
2023-04-01T10:10:11.539Z,87.90
2023-04-01T10:13:24.400Z,87.70
2023-04-01T10:16:12.022Z,87.80
2023-04-01T10:18:47.911Z,87.90
2023-04-01T10:22:05.768Z,87.60
2023-04-01T10:25:08.580Z,87.50
2023-04-01T10:27:44.192Z,87.60
2023-04-01T10:30:49.929Z,87.60
2023-04-01T10:33:43.884Z,87.40
2023-04-01T10:36:36.873Z,87.40
2023-04-01T10:39:20.934Z,87.40
2023-04-01T10:42:34.118Z,87.60
2023-04-01T10:45:26.004Z,87.50
2023-04-01T10:48:11.711Z,87.90
2023-04-01T10:51:18.761Z,87.80
2023-04-01T10:54:21.649Z,87.70
2023-04-01T10:56:58.236Z,87.50
2023-04-01T10:59:32.437Z,87.50
2023-04-01T11:02:37.102Z,87.50
2023-04-01T11:05:06.736Z,87.40
2023-04-01T11:08:06.466Z,87.40
2023-04-01T11:10:58.942Z,87.20
2023-04-01T11:13:59.343Z,87.40
2023-04-01T11:16:41.555Z,87.20
2023-04-01T11:19:40.277Z,87.30
2023-04-01T11:22:22.543Z,87.40
2023-04-01T11:25:00.865Z,87.40
2023-04-01T11:27:47.544Z,87.50
2023-04-01T11:30:23.913Z,87.70
2023-04-01T11:33:15.073Z,87.70
2023-04-01T11:36:10.906Z,87.80
2023-04-01T11:38:53.862Z,87.70
2023-04-01T11:41:39.153Z,87.50
2023-04-01T11:44:13.809Z,87.40
2023-04-01T11:47:02.160Z,87.30
2023-04-01T11:49:44.660Z,87.30
2023-04-01T11:52:23.511Z,87.20
2023-04-01T11:55:26.210Z,87.50
2023-04-01T11:58:19.312Z,88.10
2023-04-01T12:00:52.367Z,87.60
2023-04-01T12:03:54.842Z,87.40
2023-04-01T12:06:43.352Z,87.40
2023-04-01T12:09:32.211Z,87.40
2023-04-01T12:12:17.736Z,87.40
2023-04-01T12:14:50.426Z,87.40
2023-04-01T12:17:35.789Z,87.20
2023-04-01T12:20:30.145Z,87.20
2023-04-01T12:23:17.408Z,87.30
2023-04-01T12:26:02.556Z,87.40
2023-04-01T12:29:02.959Z,87.40
2023-04-01T12:31:53.269Z,87.40
2023-04-01T12:34:51.896Z,87.40
2023-04-01T12:37:36.811Z,87.20
2023-04-01T12:40:22.315Z,87.40
2023-04-01T12:43:16.044Z,87.20
2023-04-01T12:46:10.869Z,87.20
2023-04-01T12:49:05.996Z,87.20
2023-04-01T12:51:59.047Z,87.20
2023-04-01T12:54:37.997Z,87.20
2023-04-01T12:57:17.718Z,87.20
2023-04-01T13:00:21.985Z,87.40
2023-04-01T13:03:11.853Z,87.20
2023-04-01T13:05:54.742Z,87.40
2023-04-01T13:08:27.620Z,87.20
2023-04-01T13:11:12.314Z,87.40
2023-04-01T13:13:54.856Z,87.20
2023-04-01T13:16:28.670Z,87.20
2023-04-01T13:19:21.665Z,87.20
2023-04-01T13:22:43.276Z,87.40
2023-04-01T13:25:36.402Z,87.20
2023-04-01T13:28:38.158Z,87.20
2023-04-01T13:31:23.348Z,87.20
2023-04-01T13:34:28.535Z,87.20
2023-04-01T13:37:19.958Z,87.50
2023-04-01T13:40:12.396Z,87.30
2023-04-01T13:42:51.949Z,87.20
2023-04-01T13:45:27.455Z,87.20
2023-04-01T13:48:03.081Z,87.20
2023-04-01T13:51:21.836Z,87.40
2023-04-01T13:54:11.926Z,87.20
2023-04-01T13:56:51.831Z,87.20
2023-04-01T13:59:40.477Z,87.20
2023-04-01T14:02:40.565Z,87.20
2023-04-01T14:05:32.251Z,87.50
2023-04-01T14:08:52.446Z,87.50
2023-04-01T14:11:54.271Z,87.40
2023-04-01T14:14:34.419Z,87.90
2023-04-01T14:17:03.738Z,88.20
2023-04-01T14:20:00.867Z,87.90
2023-04-01T14:22:52.909Z,87.60
2023-04-01T14:25:40.931Z,87.20
2023-04-01T14:28:43.251Z,87.40
2023-04-01T14:31:39.381Z,87.40
2023-04-01T14:34:47.432Z,87.20
2023-04-01T14:37:36.711Z,87.20
2023-04-01T14:40:29.805Z,87.30
2023-04-01T14:43:26.758Z,87.20
2023-04-01T14:46:05.868Z,88.20
2023-04-01T14:48:53.061Z,88.80
2023-04-01T14:51:33.870Z,89.30
2023-04-01T14:54:12.586Z,89.20
2023-04-01T14:56:47.608Z,89.10
2023-04-01T14:59:31.745Z,88.70
2023-04-01T15:02:03.438Z,88.20
2023-04-01T15:04:36.347Z,88.20
2023-04-01T15:07:26.498Z,87.90
2023-04-01T15:10:28.595Z,87.70
2023-04-01T15:13:14.060Z,87.60
2023-04-01T15:16:01.634Z,87.50
2023-04-01T15:18:56.004Z,87.50
2023-04-01T15:21:56.464Z,87.40
2023-04-01T15:24:41.845Z,87.40
2023-04-01T15:27:36.746Z,87.40
2023-04-01T15:30:32.635Z,87.40
2023-04-01T15:33:19.087Z,87.90
2023-04-01T15:36:04.825Z,88.30
2023-04-01T15:38:43.965Z,88.00
2023-04-01T15:41:17.373Z,87.70
2023-04-01T15:43:53.281Z,87.70
2023-04-01T15:46:40.922Z,87.90
2023-04-01T15:49:29.002Z,87.60
2023-04-01T15:52:25.435Z,87.40
2023-04-01T15:55:12.041Z,87.40
2023-04-01T15:58:03.904Z,87.40
2023-04-01T16:00:32.021Z,87.30
2023-04-01T16:03:21.230Z,87.40
2023-04-01T16:06:13.032Z,87.30
2023-04-01T16:08:45.729Z,87.20
2023-04-01T16:11:50.377Z,87.20
2023-04-01T16:14:36.525Z,87.20
2023-04-01T16:17:30.648Z,87.20
2023-04-01T16:20:03.900Z,87.20
2023-04-01T16:22:47.102Z,87.50
2023-04-01T16:25:19.431Z,87.40
2023-04-01T16:27:57.464Z,87.40
2023-04-01T16:30:48.023Z,87.50
2023-04-01T16:33:29.118Z,87.40
2023-04-01T16:36:21.103Z,87.50
2023-04-01T16:39:07.494Z,87.50
2023-04-01T16:41:39.696Z,87.40
2023-04-01T16:44:25.362Z,87.50
2023-04-01T16:47:11.531Z,87.40
2023-04-01T16:49:43.221Z,87.60
2023-04-01T16:52:09.874Z,87.50
2023-04-01T16:55:00.973Z,87.40
2023-04-01T16:57:47.474Z,87.60
2023-04-01T17:00:26.337Z,87.50
2023-04-01T17:02:56.233Z,87.40
2023-04-01T17:05:43.427Z,87.40
2023-04-01T17:08:41.162Z,87.40
2023-04-01T17:11:18.454Z,87.40
2023-04-01T17:13:57.076Z,87.60
2023-04-01T17:16:50.012Z,87.50
2023-04-01T17:19:23.860Z,87.60
2023-04-01T17:22:19.690Z,87.60
2023-04-01T17:25:14.485Z,87.60
2023-04-01T17:28:29.081Z,87.60
2023-04-01T17:31:06.924Z,87.60
2023-04-01T17:34:16.384Z,87.90
2023-04-01T17:36:46.559Z,88.00
2023-04-01T17:39:38.216Z,87.80
2023-04-01T17:42:24.847Z,87.80
2023-04-01T17:45:39.969Z,87.80
2023-04-01T17:48:19.632Z,87.80
2023-04-01T17:50:58.131Z,87.70
2023-04-01T17:53:31.253Z,87.70
2023-04-01T17:56:14.814Z,87.80
2023-04-01T17:58:57.381Z,87.70
2023-04-01T18:01:47.322Z,87.80
2023-04-01T18:04:37.693Z,88.50
2023-04-01T18:07:13.286Z,89.10
2023-04-01T18:10:18.678Z,89.10
2023-04-01T18:13:29.819Z,88.60
2023-04-01T18:16:05.673Z,87.90
2023-04-01T18:18:53.034Z,88.00
2023-04-01T18:21:51.626Z,88.20
2023-04-01T18:24:34.403Z,87.80
2023-04-01T18:27:16.224Z,87.60
2023-04-01T18:29:56.454Z,87.50
2023-04-01T18:32:37.699Z,87.60
2023-04-01T18:35:23.175Z,88.10
2023-04-01T18:38:11.967Z,89.60
2023-04-01T18:40:52.011Z,90.10
2023-04-01T18:43:21.584Z,90.00
2023-04-01T18:46:14.944Z,89.30
2023-04-01T18:49:14.794Z,88.50
2023-04-01T18:51:58.518Z,88.00
2023-04-01T18:54:31.770Z,87.80
2023-04-01T18:57:16.941Z,87.70
2023-04-01T18:59:47.736Z,87.70
2023-04-01T19:02:20.297Z,87.70
2023-04-01T19:05:08.955Z,87.70
2023-04-01T19:07:43.773Z,87.70
2023-04-01T19:10:38.089Z,87.70
2023-04-01T19:13:16.837Z,87.70
2023-04-01T19:16:29.737Z,87.70
2023-04-01T19:19:08.599Z,87.60
2023-04-01T19:21:48.532Z,87.50
2023-04-01T19:24:30.045Z,87.50
2023-04-01T19:27:27.714Z,87.70
2023-04-01T19:30:16.839Z,87.50
2023-04-01T19:33:16.670Z,87.50
2023-04-01T19:35:52.206Z,87.70
2023-04-01T19:38:29.020Z,87.70
2023-04-01T19:41:23.242Z,87.70
2023-04-01T19:44:11.807Z,87.50
2023-04-01T19:46:53.696Z,87.50
2023-04-01T19:49:25.060Z,87.50
2023-04-01T19:51:56.110Z,87.50
2023-04-01T19:54:29.899Z,87.50
2023-04-01T19:57:12.395Z,87.40
2023-04-01T20:00:06.008Z,87.40
2023-04-01T20:02:51.833Z,87.20
2023-04-01T20:05:43.237Z,87.60
2023-04-01T20:08:52.097Z,87.40
2023-04-01T20:11:40.058Z,87.50
2023-04-01T20:14:34.459Z,87.50
2023-04-01T20:17:10.823Z,87.40
2023-04-01T20:19:49.594Z,87.50
2023-04-01T20:22:39.711Z,87.40
2023-04-01T20:25:23.154Z,87.40
2023-04-01T20:28:10.806Z,87.40
2023-04-01T20:30:55.475Z,87.30
2023-04-01T20:33:55.151Z,87.40
2023-04-01T20:36:50.469Z,87.20
2023-04-01T20:39:51.457Z,87.40
2023-04-01T20:42:39.977Z,87.40
2023-04-01T20:45:28.404Z,87.40
2023-04-01T20:48:23.275Z,87.40
2023-04-01T20:51:06.293Z,87.60
2023-04-01T20:54:03.460Z,87.70
2023-04-01T20:56:47.906Z,87.70
2023-04-01T20:59:46.328Z,87.60
2023-04-01T21:02:47.749Z,87.50
2023-04-01T21:05:30.900Z,87.40
2023-04-01T21:08:12.606Z,87.50
2023-04-01T21:10:45.060Z,87.50
2023-04-01T21:13:20.888Z,87.50
2023-04-01T21:16:15.359Z,87.50
2023-04-01T21:18:44.953Z,87.40
2023-04-01T21:21:31.043Z,87.50
2023-04-01T21:24:12.215Z,87.50
2023-04-01T21:26:56.260Z,87.40
2023-04-01T21:29:46.525Z,87.50
2023-04-01T21:32:37.362Z,87.40
2023-04-01T21:35:43.848Z,87.50
2023-04-01T21:38:41.472Z,87.40
2023-04-01T21:41:26.650Z,87.40
2023-04-01T21:44:36.030Z,87.60
2023-04-01T21:47:17.794Z,87.40
2023-04-01T21:50:06.340Z,87.40
2023-04-01T21:52:52.760Z,87.40
2023-04-01T21:55:39.408Z,87.50
2023-04-01T21:58:27.926Z,87.40
2023-04-01T22:01:13.448Z,87.50
2023-04-01T22:04:08.878Z,87.40
2023-04-01T22:06:42.019Z,87.50
2023-04-01T22:09:19.335Z,87.40
2023-04-01T22:11:55.437Z,87.50
2023-04-01T22:14:29.172Z,87.40
2023-04-01T22:16:58.866Z,87.40
2023-04-01T22:19:25.529Z,87.40
2023-04-01T22:22:28.038Z,87.50
2023-04-01T22:25:11.799Z,87.40
2023-04-01T22:28:14.706Z,87.40
2023-04-01T22:30:48.632Z,87.40
2023-04-01T22:33:27.738Z,87.50
2023-04-01T22:36:29.246Z,87.50
2023-04-01T22:39:22.373Z,87.40
2023-04-01T22:42:05.305Z,87.50
2023-04-01T22:44:38.607Z,87.40
2023-04-01T22:47:16.016Z,87.40
2023-04-01T22:50:00.474Z,87.40
2023-04-01T22:52:47.931Z,87.50
2023-04-01T22:55:18.919Z,87.40
2023-04-01T22:58:02.677Z,87.50
2023-04-01T23:00:44.114Z,87.50
2023-04-01T23:03:25.962Z,87.40
2023-04-01T23:05:58.993Z,87.40
2023-04-01T23:08:41.944Z,87.40
2023-04-01T23:11:20.643Z,87.30
2023-04-01T23:13:53.930Z,87.40
2023-04-01T23:16:31.623Z,87.30
2023-04-01T23:19:21.663Z,88.70
2023-04-01T23:22:01.050Z,88.90
2023-04-01T23:24:37.296Z,88.50
2023-04-01T23:27:24.766Z,88.10
2023-04-01T23:29:52.391Z,87.70
2023-04-01T23:32:27.147Z,87.70
2023-04-01T23:34:59.072Z,87.70
2023-04-01T23:37:31.572Z,87.70
2023-04-01T23:39:59.811Z,87.60
2023-04-01T23:42:30.553Z,87.60
2023-04-01T23:45:06.637Z,87.60
2023-04-01T23:47:53.332Z,87.60
2023-04-01T23:50:24.517Z,87.70
2023-04-01T23:53:05.991Z,87.50
2023-04-01T23:55:34.287Z,87.50
2023-04-01T23:58:21.678Z,87.50
